createdAt,value
2022-09-30T00:01:52.408Z,10.15
2022-09-30T00:04:21.700Z,10.93
2022-09-30T00:06:48.750Z,10.45
2022-09-30T00:09:15.589Z,10.57
2022-09-30T00:11:42.786Z,9.70
2022-09-30T00:14:16.127Z,10.00
2022-09-30T00:16:42.861Z,9.95
2022-09-30T00:19:10.005Z,9.60
2022-09-30T00:21:36.646Z,10.23
2022-09-30T00:24:04.560Z,10.27
2022-09-30T00:26:31.837Z,10.35
2022-09-30T00:28:59.504Z,10.50
2022-09-30T00:31:30.190Z,10.70
2022-09-30T00:34:09.246Z,10.07
2022-09-30T00:36:45.340Z,9.88
2022-09-30T00:39:18.725Z,9.43
2022-09-30T00:41:47.083Z,9.55
2022-09-30T00:44:53.732Z,9.00
2022-09-30T00:47:46.808Z,8.75
2022-09-30T00:50:47.117Z,10.85
2022-09-30T00:53:20.420Z,9.57
2022-09-30T00:56:03.170Z,9.27
2022-09-30T00:58:36.191Z,9.50
2022-09-30T01:01:03.850Z,11.82
2022-09-30T01:03:32.273Z,10.13
2022-09-30T01:05:58.856Z,9.38
2022-09-30T01:08:26.123Z,9.35
2022-09-30T01:10:52.695Z,9.45
2022-09-30T01:13:20.360Z,8.80
2022-09-30T01:15:59.016Z,9.17
2022-09-30T01:18:48.354Z,8.63
2022-09-30T01:21:29.314Z,8.32
2022-09-30T01:24:29.921Z,9.40
2022-09-30T01:27:10.837Z,8.68
2022-09-30T01:30:04.108Z,9.18
2022-09-30T01:32:56.857Z,8.73
2022-09-30T01:35:38.301Z,8.32
2022-09-30T01:38:38.893Z,8.68
2022-09-30T01:41:10.581Z,8.23
2022-09-30T01:43:55.403Z,8.43
2022-09-30T01:46:44.556Z,8.77
2022-09-30T01:49:26.348Z,8.63
2022-09-30T01:52:03.642Z,11.23
2022-09-30T01:54:47.952Z,9.68
2022-09-30T01:57:37.051Z,9.48
2022-09-30T02:00:07.830Z,9.10
2022-09-30T02:02:41.224Z,9.48
2022-09-30T02:05:13.248Z,11.48
2022-09-30T02:07:45.590Z,10.95
2022-09-30T02:10:14.503Z,10.90
2022-09-30T02:12:47.846Z,10.88
2022-09-30T02:15:18.297Z,10.40
2022-09-30T02:17:52.284Z,9.48
2022-09-30T02:20:28.017Z,10.43
2022-09-30T02:23:04.499Z,9.70
2022-09-30T02:25:36.784Z,10.68
2022-09-30T02:28:07.464Z,9.50
2022-09-30T02:30:36.210Z,10.57
2022-09-30T02:33:06.941Z,11.05
2022-09-30T02:35:39.533Z,10.90
2022-09-30T02:38:12.628Z,10.30
2022-09-30T02:40:44.455Z,9.77
2022-09-30T02:43:11.220Z,10.50
2022-09-30T02:45:47.901Z,10.73
2022-09-30T02:48:23.481Z,10.40
2022-09-30T02:50:58.120Z,10.23
2022-09-30T02:53:44.055Z,10.25
2022-09-30T02:56:23.066Z,9.50
2022-09-30T02:58:50.629Z,9.40
2022-09-30T03:01:17.656Z,11.38
2022-09-30T03:03:53.284Z,10.00
2022-09-30T03:06:20.487Z,9.23
2022-09-30T03:08:47.385Z,9.52
2022-09-30T03:11:18.829Z,9.93
2022-09-30T03:14:10.631Z,9.43
2022-09-30T03:17:11.872Z,9.32
2022-09-30T03:19:51.631Z,9.30
2022-09-30T03:22:49.228Z,10.32
2022-09-30T03:25:25.912Z,9.30
2022-09-30T03:28:17.369Z,9.48
2022-09-30T03:31:06.822Z,10.10
2022-09-30T03:34:17.845Z,9.27
2022-09-30T03:37:06.723Z,9.52
2022-09-30T03:39:36.281Z,9.02
2022-09-30T03:42:12.368Z,8.77
2022-09-30T03:44:46.825Z,9.05
2022-09-30T03:47:15.436Z,9.20
2022-09-30T03:52:19.497Z,10.18
2022-09-30T03:54:54.759Z,10.43
2022-09-30T03:57:21.420Z,9.80
2022-09-30T03:59:47.997Z,9.50
2022-09-30T04:02:14.628Z,9.98
2022-09-30T04:04:44.574Z,9.27
2022-09-30T04:07:11.557Z,9.25
2022-09-30T04:09:39.108Z,9.68
2022-09-30T04:12:06.114Z,11.07
2022-09-30T04:14:32.716Z,10.38
2022-09-30T04:16:59.336Z,11.20
2022-09-30T04:19:26.053Z,9.07
2022-09-30T04:21:53.576Z,9.88
2022-09-30T04:24:21.445Z,9.38
2022-09-30T04:26:48.684Z,8.65
2022-09-30T04:29:15.614Z,9.18
2022-09-30T04:31:42.599Z,9.32
2022-09-30T04:34:10.839Z,9.90
2022-09-30T04:36:37.861Z,9.32
2022-09-30T04:39:04.673Z,10.60
2022-09-30T04:41:32.616Z,11.07
2022-09-30T04:43:59.177Z,10.10
2022-09-30T04:46:25.886Z,9.43
2022-09-30T04:48:52.448Z,10.95
2022-09-30T04:51:21.204Z,10.13
2022-09-30T04:53:48.554Z,9.63
2022-09-30T04:56:16.948Z,9.75
2022-09-30T04:58:44.049Z,9.65
2022-09-30T05:01:13.250Z,9.40
2022-09-30T05:03:40.414Z,9.40
2022-09-30T05:06:07.911Z,9.57
2022-09-30T05:08:34.530Z,9.98
2022-09-30T05:11:04.384Z,9.23
2022-09-30T05:13:33.383Z,9.48
2022-09-30T05:16:00.578Z,10.20
2022-09-30T05:18:27.296Z,9.35
2022-09-30T05:20:57.293Z,9.70
2022-09-30T05:23:25.060Z,9.32
2022-09-30T05:25:52.076Z,9.10
2022-09-30T05:28:19.030Z,9.40
2022-09-30T05:30:46.117Z,9.80
2022-09-30T05:33:14.053Z,8.85
2022-09-30T05:35:41.592Z,10.05
2022-09-30T05:38:08.840Z,10.57
2022-09-30T05:40:39.499Z,10.15
2022-09-30T05:43:06.849Z,9.85
2022-09-30T05:45:33.913Z,10.07
2022-09-30T05:48:01.096Z,10.07
2022-09-30T05:50:28.109Z,9.35
2022-09-30T05:52:54.680Z,10.55
2022-09-30T05:55:22.639Z,9.82
2022-09-30T05:57:50.444Z,9.18
2022-09-30T06:00:18.136Z,9.70
2022-09-30T06:02:44.832Z,9.83
2022-09-30T06:05:12.953Z,9.63
2022-09-30T06:07:39.956Z,10.57
2022-09-30T06:10:12.200Z,10.05
2022-09-30T06:12:39.547Z,10.13
2022-09-30T06:15:06.854Z,10.15
2022-09-30T06:17:34.597Z,10.45
2022-09-30T06:20:01.630Z,10.55
2022-09-30T06:22:28.229Z,10.35
2022-09-30T06:24:55.463Z,10.70
2022-09-30T06:27:22.245Z,9.35
2022-09-30T06:29:49.391Z,10.07
2022-09-30T06:32:17.340Z,10.32
2022-09-30T06:34:44.100Z,10.02
2022-09-30T06:37:13.810Z,9.38
2022-09-30T06:39:41.768Z,11.80
2022-09-30T06:42:08.444Z,14.50
2022-09-30T06:44:46.384Z,12.45
2022-09-30T06:47:24.411Z,10.68
2022-09-30T06:49:53.137Z,12.95
2022-09-30T06:52:20.247Z,13.00
2022-09-30T06:54:47.058Z,10.95
2022-09-30T06:57:13.851Z,10.00
2022-09-30T06:59:40.769Z,11.10
2022-09-30T07:02:09.681Z,10.02
2022-09-30T07:04:36.321Z,10.95
2022-09-30T07:07:03.086Z,10.70
2022-09-30T07:09:29.986Z,10.48
2022-09-30T07:11:56.941Z,10.40
2022-09-30T07:14:24.118Z,9.13
2022-09-30T07:16:53.121Z,9.82
2022-09-30T07:19:23.143Z,10.35
2022-09-30T07:21:50.229Z,8.90
2022-09-30T07:24:17.533Z,10.48
2022-09-30T07:26:45.409Z,9.63
2022-09-30T07:29:13.908Z,10.27
2022-09-30T07:34:09.014Z,10.32
2022-09-30T07:39:07.075Z,10.60
2022-09-30T07:41:36.088Z,9.82
2022-09-30T07:44:03.307Z,11.85
2022-09-30T07:46:32.191Z,10.63
2022-09-30T07:49:02.184Z,10.90
2022-09-30T07:51:31.410Z,10.82
2022-09-30T07:54:01.387Z,9.70
2022-09-30T07:56:41.072Z,9.98
2022-09-30T07:59:17.148Z,10.52
2022-09-30T08:01:44.074Z,11.57
2022-09-30T08:04:12.673Z,11.40
2022-09-30T08:09:07.429Z,11.07
2022-09-30T08:11:35.452Z,11.25
2022-09-30T08:14:02.047Z,11.07
2022-09-30T08:16:29.384Z,11.40
2022-09-30T08:19:00.664Z,12.40
2022-09-30T08:21:28.713Z,11.40
2022-09-30T08:23:55.410Z,10.85
2022-09-30T08:26:22.111Z,12.23
2022-09-30T08:28:48.733Z,12.05
2022-09-30T08:31:18.673Z,14.40
2022-09-30T08:33:45.424Z,11.38
2022-09-30T08:36:17.172Z,12.23
2022-09-30T08:38:44.448Z,13.00
2022-09-30T08:41:38.974Z,11.77
2022-09-30T08:44:39.868Z,12.20
2022-09-30T08:47:41.823Z,12.55
2022-09-30T08:50:08.597Z,11.30
2022-09-30T08:52:49.434Z,12.43
2022-09-30T08:55:40.863Z,12.05
2022-09-30T08:58:26.693Z,12.15
2022-09-30T09:00:58.395Z,11.10
2022-09-30T09:03:30.349Z,11.27
2022-09-30T09:06:20.376Z,10.70
2022-09-30T09:09:22.193Z,11.43
2022-09-30T09:12:00.357Z,10.18
2022-09-30T09:14:45.622Z,9.68
2022-09-30T09:17:27.282Z,10.10
2022-09-30T09:20:07.516Z,11.85
2022-09-30T09:22:34.761Z,10.15
2022-09-30T09:25:02.267Z,11.57
2022-09-30T09:27:50.126Z,11.07
2022-09-30T09:30:20.549Z,12.25
2022-09-30T09:32:52.269Z,10.18
2022-09-30T09:35:40.522Z,11.30
2022-09-30T09:38:26.567Z,11.15
2022-09-30T09:41:17.727Z,12.15
2022-09-30T09:44:05.710Z,14.43
2022-09-30T09:46:47.823Z,10.73
2022-09-30T09:49:17.103Z,12.25
2022-09-30T09:51:47.855Z,11.50
2022-09-30T09:54:17.341Z,12.80
2022-09-30T09:56:43.887Z,12.65
2022-09-30T09:59:20.077Z,12.38
2022-09-30T10:01:53.771Z,13.65
2022-09-30T10:04:30.423Z,13.90
2022-09-30T10:07:01.224Z,11.18
2022-09-30T10:09:32.256Z,11.23
2022-09-30T10:12:07.857Z,10.43
2022-09-30T10:14:36.018Z,10.88
2022-09-30T10:17:04.880Z,10.38
2022-09-30T10:19:33.629Z,11.05
2022-09-30T10:22:09.474Z,10.38
2022-09-30T10:24:38.040Z,11.60
2022-09-30T10:29:35.813Z,10.85
2022-09-30T10:32:04.155Z,9.55
2022-09-30T10:34:33.388Z,9.85
2022-09-30T10:37:03.032Z,9.27
2022-09-30T10:39:32.712Z,10.32
2022-09-30T10:42:09.421Z,11.50
2022-09-30T10:44:45.935Z,10.23
2022-09-30T10:47:19.867Z,9.68
2022-09-30T10:49:50.239Z,10.20
2022-09-30T10:52:28.716Z,9.38
2022-09-30T10:57:32.540Z,10.25
2022-09-30T11:00:09.899Z,10.55
2022-09-30T11:03:04.212Z,9.90
2022-09-30T11:05:32.761Z,10.43
2022-09-30T11:08:21.121Z,10.50
2022-09-30T11:13:41.953Z,8.95
2022-09-30T11:16:08.682Z,9.52
2022-09-30T11:18:52.921Z,10.55
2022-09-30T11:21:30.165Z,9.45
2022-09-30T11:24:13.220Z,10.23
2022-09-30T11:27:23.655Z,10.25
2022-09-30T11:30:11.951Z,7.95
2022-09-30T11:33:10.392Z,8.63
2022-09-30T11:35:54.439Z,8.32
2022-09-30T11:38:30.069Z,7.57
2022-09-30T11:40:56.569Z,7.93
2022-09-30T11:44:00.862Z,8.48
2022-09-30T11:46:52.464Z,8.68
2022-09-30T11:49:41.038Z,8.70
2022-09-30T11:52:25.337Z,7.40
2022-09-30T11:55:19.670Z,9.38
2022-09-30T11:58:12.024Z,8.55
2022-09-30T12:00:49.610Z,8.80
2022-09-30T12:03:23.027Z,8.63
2022-09-30T12:05:55.807Z,9.07
2022-09-30T12:08:24.887Z,9.85
2022-09-30T12:10:54.929Z,8.73
2022-09-30T12:13:36.466Z,7.47
2022-09-30T12:16:06.247Z,8.93
2022-09-30T12:18:44.920Z,7.25
2022-09-30T12:21:29.497Z,8.55
2022-09-30T12:24:11.507Z,8.45
2022-09-30T12:26:38.220Z,7.63
2022-09-30T12:29:47.472Z,9.18
2022-09-30T12:32:33.347Z,9.07
2022-09-30T12:35:02.520Z,8.82
2022-09-30T12:37:50.419Z,8.50
2022-09-30T12:40:55.530Z,8.32
2022-09-30T12:43:28.744Z,6.88
2022-09-30T12:46:14.764Z,6.55
2022-09-30T12:49:04.008Z,6.50
2022-09-30T12:51:32.585Z,5.45
2022-09-30T12:56:29.009Z,5.70
2022-09-30T12:58:57.604Z,5.25
2022-09-30T13:01:29.485Z,5.78
2022-09-30T13:04:01.972Z,5.70
2022-09-30T13:06:48.440Z,5.15
2022-09-30T13:09:22.373Z,4.70
2022-09-30T13:12:16.434Z,4.78
2022-09-30T13:14:45.807Z,5.28
2022-09-30T13:17:13.047Z,5.43
2022-09-30T13:19:41.465Z,5.20
2022-09-30T13:22:20.401Z,4.60
2022-09-30T13:25:05.184Z,4.82
2022-09-30T13:27:40.527Z,5.15
2022-09-30T13:30:16.188Z,4.35
2022-09-30T13:32:43.505Z,3.88
2022-09-30T13:35:32.633Z,5.25
2022-09-30T13:38:12.938Z,4.20
2022-09-30T13:41:02.605Z,4.13
2022-09-30T13:43:48.477Z,4.78
2022-09-30T13:46:24.279Z,4.13
2022-09-30T13:49:00.811Z,3.83
2022-09-30T13:51:30.385Z,4.50
2022-09-30T13:54:00.571Z,3.97
2022-09-30T13:56:30.918Z,3.78
2022-09-30T13:59:22.124Z,3.20
2022-09-30T14:02:00.813Z,3.50
2022-09-30T14:04:40.957Z,3.40
2022-09-30T14:07:23.182Z,3.45
2022-09-30T14:10:09.604Z,4.13
2022-09-30T14:13:02.741Z,4.07
2022-09-30T14:15:49.668Z,3.00
2022-09-30T14:18:40.124Z,3.50
2022-09-30T14:21:35.300Z,2.88
2022-09-30T14:24:10.853Z,3.10
2022-09-30T14:26:44.106Z,3.00
2022-09-30T14:29:13.397Z,2.60
2022-09-30T14:31:45.023Z,2.92
2022-09-30T14:34:13.481Z,2.88
2022-09-30T14:39:15.415Z,2.00
2022-09-30T14:41:51.582Z,2.03
2022-09-30T14:44:19.932Z,2.40
2022-09-30T14:49:16.909Z,2.58
2022-09-30T14:51:47.093Z,2.42
2022-09-30T14:54:22.461Z,2.13
2022-09-30T14:56:50.709Z,2.10
2022-09-30T14:59:17.739Z,1.88
2022-09-30T15:01:45.648Z,2.47
2022-09-30T15:04:16.920Z,1.80
2022-09-30T15:06:47.625Z,1.95
2022-09-30T15:09:39.573Z,2.08
2022-09-30T15:12:18.836Z,1.83
2022-09-30T15:14:59.607Z,2.13
2022-09-30T15:17:27.317Z,1.90
2022-09-30T15:19:55.806Z,2.20
2022-09-30T15:24:51.312Z,1.77
2022-09-30T15:27:22.315Z,2.50
2022-09-30T15:30:00.443Z,2.10
2022-09-30T15:32:29.172Z,2.50
2022-09-30T15:34:58.558Z,2.15
2022-09-30T15:37:29.882Z,2.20
2022-09-30T15:40:15.055Z,2.20
2022-09-30T15:43:06.466Z,2.20
2022-09-30T15:45:41.412Z,1.75
2022-09-30T15:48:35.155Z,2.50
2022-09-30T15:51:25.826Z,2.58
2022-09-30T15:53:52.834Z,1.80
2022-09-30T15:56:22.093Z,2.40
2022-09-30T15:58:59.045Z,2.28
2022-09-30T16:01:50.150Z,1.83
2022-09-30T16:04:16.698Z,1.92
2022-09-30T16:06:55.397Z,1.90
2022-09-30T16:09:32.436Z,2.10
2022-09-30T16:12:05.356Z,2.20
2022-09-30T16:14:55.091Z,1.90
2022-09-30T16:17:37.813Z,2.30
2022-09-30T16:20:22.046Z,2.00
2022-09-30T16:22:54.900Z,1.85
2022-09-30T16:25:28.201Z,2.00
2022-09-30T16:28:15.155Z,2.60
2022-09-30T16:30:49.914Z,2.13
2022-09-30T16:33:16.954Z,2.58
2022-09-30T16:35:44.505Z,2.50
2022-09-30T16:38:14.984Z,2.28
2022-09-30T16:40:41.591Z,2.53
2022-09-30T16:43:11.841Z,2.13
2022-09-30T16:45:40.375Z,2.90
2022-09-30T16:50:49.743Z,1.77
2022-09-30T16:53:16.332Z,2.90
2022-09-30T16:55:43.067Z,2.83
2022-09-30T16:58:11.296Z,2.60
2022-09-30T17:00:38.266Z,2.70
2022-09-30T17:03:04.924Z,2.60
2022-09-30T17:05:31.474Z,2.60
2022-09-30T17:07:59.408Z,1.73
2022-09-30T17:10:31.763Z,1.77
2022-09-30T17:13:03.512Z,1.70
2022-09-30T17:15:31.635Z,1.70
2022-09-30T17:17:58.576Z,1.60
2022-09-30T17:20:25.887Z,1.88
2022-09-30T17:22:52.755Z,2.05
2022-09-30T17:25:19.428Z,1.58
2022-09-30T17:27:52.623Z,1.75
2022-09-30T17:30:19.722Z,1.92
2022-09-30T17:32:47.103Z,1.75
2022-09-30T17:35:14.547Z,2.28
2022-09-30T17:37:45.310Z,2.53
2022-09-30T17:40:31.457Z,1.70
2022-09-30T17:43:13.156Z,1.63
2022-09-30T17:45:44.353Z,1.90
2022-09-30T17:48:12.035Z,2.03
2022-09-30T17:50:44.547Z,2.10
2022-09-30T17:53:16.865Z,2.92
2022-09-30T17:55:47.052Z,2.75
2022-09-30T17:58:14.945Z,4.57
2022-09-30T18:00:42.448Z,4.72
2022-09-30T18:03:09.872Z,5.78
2022-09-30T18:05:36.980Z,4.97
2022-09-30T18:08:03.879Z,4.70
2022-09-30T18:10:30.464Z,3.72
2022-09-30T18:12:57.168Z,3.40
2022-09-30T18:15:23.819Z,4.18
2022-09-30T18:17:50.539Z,3.13
2022-09-30T18:20:18.658Z,3.13
2022-09-30T18:22:47.271Z,2.72
2022-09-30T18:25:19.985Z,2.45
2022-09-30T18:27:56.485Z,2.60
2022-09-30T18:30:23.360Z,2.90
2022-09-30T18:32:52.140Z,2.75
2022-09-30T18:35:20.420Z,3.08
2022-09-30T18:37:49.855Z,2.47
2022-09-30T18:40:21.991Z,2.80
2022-09-30T18:42:49.163Z,2.65
2022-09-30T18:45:15.805Z,3.25
2022-09-30T18:47:43.961Z,3.47
2022-09-30T18:50:11.729Z,4.00
2022-09-30T18:52:39.457Z,4.00
2022-09-30T18:55:07.553Z,4.63
2022-09-30T18:57:34.162Z,3.95
2022-09-30T19:00:01.980Z,4.03
2022-09-30T19:02:28.924Z,4.05
2022-09-30T19:04:59.887Z,4.32
2022-09-30T19:07:27.068Z,4.13
2022-09-30T19:09:53.633Z,4.63
2022-09-30T19:12:20.722Z,3.72
2022-09-30T19:14:47.859Z,3.90
2022-09-30T19:17:15.474Z,4.40
2022-09-30T19:19:45.371Z,4.18
2022-09-30T19:22:13.532Z,4.03
2022-09-30T19:24:41.318Z,4.53
2022-09-30T19:27:08.943Z,4.65
2022-09-30T19:29:35.704Z,4.63
2022-09-30T19:32:02.349Z,4.68
2022-09-30T19:34:32.349Z,4.45
2022-09-30T19:37:00.057Z,4.43
2022-09-30T19:39:39.251Z,3.97
2022-09-30T19:42:11.768Z,5.10
2022-09-30T19:44:38.304Z,6.78
2022-09-30T19:47:04.833Z,6.13
2022-09-30T19:49:31.428Z,4.70
2022-09-30T19:51:57.988Z,3.70
2022-09-30T19:54:36.450Z,4.35
2022-09-30T19:57:04.759Z,4.13
2022-09-30T19:59:31.288Z,4.10
2022-09-30T20:01:58.679Z,4.72
2022-09-30T20:04:25.353Z,4.70
2022-09-30T20:06:53.775Z,4.28
2022-09-30T20:09:20.518Z,4.55
2022-09-30T20:11:47.170Z,3.92
2022-09-30T20:14:32.243Z,4.25
2022-09-30T20:16:58.888Z,4.00
2022-09-30T20:19:25.428Z,3.95
2022-09-30T20:21:54.453Z,4.35
2022-09-30T20:24:21.157Z,3.67
2022-09-30T20:26:47.837Z,3.92
2022-09-30T20:29:14.869Z,3.63
2022-09-30T20:31:42.467Z,3.50
2022-09-30T20:34:12.099Z,3.40
2022-09-30T20:36:40.351Z,3.70
2022-09-30T20:39:07.874Z,3.83
2022-09-30T20:41:36.854Z,3.63
2022-09-30T20:44:13.849Z,3.60
2022-09-30T20:46:41.701Z,3.83
2022-09-30T20:49:08.939Z,3.25
2022-09-30T20:51:36.047Z,3.20
2022-09-30T20:54:02.845Z,3.78
2022-09-30T20:56:39.398Z,3.30
2022-09-30T20:59:17.201Z,3.13
2022-09-30T21:01:43.885Z,3.05
2022-09-30T21:04:10.556Z,3.10
2022-09-30T21:06:37.116Z,2.85
2022-09-30T21:09:03.866Z,3.40
2022-09-30T21:11:30.830Z,2.55
2022-09-30T21:13:58.055Z,2.88
2022-09-30T21:16:25.559Z,2.70
2022-09-30T21:18:52.870Z,2.53
2022-09-30T21:21:21.462Z,2.20
2022-09-30T21:26:17.020Z,2.47
2022-09-30T21:28:48.869Z,1.70
2022-09-30T21:31:27.516Z,1.92
2022-09-30T21:33:56.575Z,1.60
2022-09-30T21:36:23.607Z,1.80
2022-09-30T21:38:50.745Z,1.60
2022-09-30T21:41:17.825Z,1.40
2022-09-30T21:43:44.409Z,1.52
2022-09-30T21:46:13.038Z,1.65
2022-09-30T21:51:07.010Z,1.45
2022-09-30T21:53:34.092Z,1.92
2022-09-30T21:56:02.510Z,1.58
2022-09-30T21:58:31.643Z,1.35
2022-09-30T22:01:04.273Z,2.00
2022-09-30T22:03:36.132Z,1.73
2022-09-30T22:06:05.802Z,1.52
2022-09-30T22:08:35.459Z,1.90
2022-09-30T22:11:03.467Z,1.45
2022-09-30T22:13:30.060Z,1.70
2022-09-30T22:16:02.991Z,1.40
2022-09-30T22:18:32.131Z,1.70
2022-09-30T22:21:07.118Z,1.50
2022-09-30T22:23:33.987Z,1.50
2022-09-30T22:26:13.188Z,1.65
2022-09-30T22:28:39.780Z,1.50
2022-09-30T22:31:26.574Z,1.65
2022-09-30T22:34:14.191Z,1.65
2022-09-30T22:36:59.056Z,1.48
2022-09-30T22:39:26.016Z,1.52
2022-09-30T22:41:54.065Z,1.80
2022-09-30T22:44:25.823Z,2.33
2022-09-30T22:46:53.144Z,1.70
2022-09-30T22:49:19.801Z,1.88
2022-09-30T22:51:50.416Z,1.60
2022-09-30T22:54:17.360Z,1.80
2022-09-30T22:56:43.976Z,2.00
2022-09-30T22:59:10.660Z,1.80
2022-09-30T23:01:37.310Z,1.65
2022-09-30T23:04:03.960Z,1.67
2022-09-30T23:06:31.951Z,1.40
2022-09-30T23:08:58.513Z,1.27
2022-09-30T23:11:26.088Z,1.75
2022-09-30T23:13:58.181Z,1.90
2022-09-30T23:16:25.815Z,1.65
2022-09-30T23:18:52.683Z,1.80
2022-09-30T23:21:20.288Z,1.83
2022-09-30T23:23:48.445Z,1.70
2022-09-30T23:26:19.149Z,1.60
2022-09-30T23:28:46.402Z,1.85
2022-09-30T23:31:15.340Z,1.88
2022-09-30T23:33:50.159Z,1.52
2022-09-30T23:36:20.033Z,1.95
2022-09-30T23:38:46.922Z,1.88
2022-09-30T23:41:14.365Z,1.65
2022-09-30T23:43:45.851Z,1.80
2022-09-30T23:46:12.449Z,1.90
2022-09-30T23:48:39.127Z,1.60
2022-09-30T23:51:06.399Z,1.90
2022-09-30T23:53:34.141Z,1.60
2022-09-30T23:56:10.499Z,1.50
2022-09-30T23:58:37.189Z,1.98
